Time;durP1;ratioP1;P1;durP2;ratioP2;P2;SDS_P1;SDS_P2;PMS_P1;PMS_P2;Temp;Humidity;BMP_temperature;BMP_pressure;BME280_temperature;BME280_humidity;BME280_pressure;Samples;Min_cycle;Max_cycle;Signal;HPM_P1;HPM_P2
2021/12/29 00:00:28;;;;;;;54.25;23.20;;;;;;;-3.37;80.20;97327.86;1743021;82;27371;-67
2021/12/29 00:02:58;;;;;;;66.33;27.80;;;;;;;-3.43;80.02;97316.30;1742953;81;25610;-66
2021/12/29 00:05:25;;;;;;;69.58;28.50;;;;;;;-3.38;80.33;97314.72;1743310;81;25683;-66
2021/12/29 00:07:52;;;;;;;69.07;29.07;;;;;;;-3.34;80.21;97313.17;1748731;81;25677;-67
2021/12/29 00:10:19;;;;;;;60.95;26.12;;;;;;;-3.33;80.16;97308.89;1751179;81;25471;-65
2021/12/29 00:12:51;;;;;;;66.62;26.37;;;;;;;-3.36;80.13;97305.39;1751113;82;26881;-66
2021/12/29 00:15:17;;;;;;;66.40;27.60;;;;;;;-3.38;80.21;97308.03;1750358;81;25751;-66
2021/12/29 00:17:45;;;;;;;69.17;28.15;;;;;;;-3.38;80.43;97308.84;1750946;82;25417;-67
2021/12/29 00:20:17;;;;;;;64.75;26.70;;;;;;;-3.38;80.39;97308.84;1750892;82;25684;-66
2021/12/29 00:22:45;;;;;;;67.87;28.27;;;;;;;-3.36;80.58;97300.55;1751238;82;25722;-66
2021/12/29 00:25:13;;;;;;;61.63;27.37;;;;;;;-3.34;80.66;97293.86;1750642;81;27397;-66
2021/12/29 00:27:41;;;;;;;62.43;22.35;;;;;;;-3.32;80.70;97294.42;1750989;81;25493;-66
2021/12/29 00:30:11;;;;;;;62.65;27.25;;;;;;;-3.28;80.86;97294.17;1750636;82;25440;-67
2021/12/29 00:32:38;;;;;;;98.40;36.03;;;;;;;-3.25;80.98;97296.08;1751190;82;26346;-66
2021/12/29 00:35:08;;;;;;;89.50;32.30;;;;;;;-3.21;81.21;97291.29;1750977;81;25396;-64
2021/12/29 00:37:35;;;;;;;84.92;31.33;;;;;;;-3.15;81.39;97289.45;1750667;82;27356;-66
2021/12/29 00:40:01;;;;;;;85.77;33.13;;;;;;;-3.10;81.43;97293.52;1750632;81;25641;-66
2021/12/29 00:42:27;;;;;;;77.32;29.25;;;;;;;-3.04;81.57;97291.14;1751123;82;25570;-66
2021/12/29 00:44:54;;;;;;;63.20;26.55;;;;;;;-2.95;81.67;97291.98;1750555;81;25621;-66
2021/12/29 00:47:20;;;;;;;89.30;31.10;;;;;;;-2.94;81.66;97294.40;1750911;82;25645;-67
2021/12/29 00:49:47;;;;;;;67.35;25.23;;;;;;;-2.92;81.67;97292.28;1750653;82;27445;-67
2021/12/29 00:52:14;;;;;;;217.15;58.55;;;;;;;-2.93;81.59;97295.22;1750829;82;25464;-67
2021/12/29 00:54:42;;;;;;;103.90;35.20;;;;;;;-2.94;81.64;97298.97;1750792;82;25603;-67
2021/12/29 00:57:10;;;;;;;82.50;29.42;;;;;;;-2.94;81.65;97302.44;1750931;81;26272;-67
2021/12/29 00:59:36;;;;;;;82.40;29.05;;;;;;;-2.93;81.60;97303.26;1750643;82;25661;-67
2021/12/29 01:02:03;;;;;;;60.48;25.12;;;;;;;-2.95;81.64;97303.52;1751345;81;27599;-66
2021/12/29 01:04:30;;;;;;;45.35;18.73;;;;;;;-2.93;81.62;97300.02;1751205;82;25629;-64
2021/12/29 01:06:56;;;;;;;73.70;28.90;;;;;;;-2.96;81.69;97297.89;1750672;81;25467;-66
2021/12/29 01:09:22;;;;;;;51.90;21.73;;;;;;;-2.98;81.80;97301.35;1751070;81;25451;-64
2021/12/29 01:11:49;;;;;;;59.83;24.43;;;;;;;-2.94;81.95;97299.77;1750736;82;25590;-65
2021/12/29 01:14:21;;;;;;;71.87;29.18;;;;;;;-2.94;81.82;97297.08;1750620;82;27317;-66
2021/12/29 01:16:45;;;;;;;65.83;27.60;;;;;;;-2.93;81.82;97291.98;1749886;81;25868;-64
2021/12/29 01:19:18;;;;;;;59.95;26.20;;;;;;;-2.93;81.95;97294.66;1750644;82;25686;-64
2021/12/29 01:21:49;;;;;;;68.12;28.35;;;;;;;-2.95;82.07;97298.16;1751055;82;25599;-66
2021/12/29 01:24:16;;;;;;;;;;;;;;;-2.93;82.14;97300.58;1753692;81;25626;-66
2021/12/29 01:26:43;;;;;;;88.62;30.15;;;;;;;-2.93;82.31;97305.39;1751018;81;27494;-66
2021/12/29 01:29:14;;;;;;;66.25;27.52;;;;;;;-2.91;82.28;97307.81;1750601;82;25566;-62
2021/12/29 01:31:42;;;;;;;61.45;27.48;;;;;;;-2.86;82.38;97307.85;1750778;82;25745;-66
2021/12/29 01:34:10;;;;;;;70.10;29.50;;;;;;;-2.84;82.18;97312.44;1750399;81;25600;-66
2021/12/29 01:36:38;;;;;;;65.67;26.33;;;;;;;-2.82;82.14;97308.16;1750655;82;25425;-67
2021/12/29 01:39:10;;;;;;;69.35;26.57;;;;;;;-2.83;82.08;97307.33;1750784;82;27658;-66
2021/12/29 01:41:37;;;;;;;68.55;26.85;;;;;;;-2.82;82.03;97306.81;1750584;81;25630;-66
2021/12/29 01:44:05;;;;;;;80.07;29.50;;;;;;;-2.87;82.08;97303.56;1750651;82;25677;-66
2021/12/29 01:46:32;;;;;;;77.90;32.03;;;;;;;-2.83;82.28;97298.47;1751026;81;26175;-67
2021/12/29 01:48:58;;;;;;;73.90;28.98;;;;;;;-2.80;82.22;97299.30;1750689;82;25452;-66
2021/12/29 01:51:25;;;;;;;79.82;29.12;;;;;;;-2.79;82.18;97297.69;1750654;82;27399;-67
2021/12/29 01:54:14;;;;;;;71.62;28.65;;;;;;;-2.77;82.12;97297.44;1750566;82;25625;-66
2021/12/29 01:56:33;;;;;;;78.87;32.13;;;;;;;-2.78;82.07;97297.17;1749087;81;25700;-65
2021/12/29 01:58:59;;;;;;;64.82;26.20;;;;;;;-2.78;82.00;97297.98;1750873;81;25817;-66
2021/12/29 02:01:25;;;;;;;66.72;27.90;;;;;;;-2.78;82.06;97294.48;1731583;82;25616;-67
2021/12/29 02:03:55;;;;;;;70.25;28.75;;;;;;;-2.82;82.00;97290.17;1751038;81;27298;-66
2021/12/29 02:06:20;;;;;;;77.60;31.80;;;;;;;-2.86;82.11;97283.72;1750299;81;25468;-66
2021/12/29 02:08:46;;;;;;;79.45;32.33;;;;;;;-2.86;82.09;97285.06;1743454;81;25601;-66
2021/12/29 02:11:12;;;;;;;65.83;28.75;;;;;;;-2.81;82.09;97290.47;1742649;82;25607;-67
2021/12/29 02:13:39;;;;;;;70.72;30.02;;;;;;;-2.81;82.14;97286.44;1742962;82;25445;-66
2021/12/29 02:16:06;;;;;;;71.15;30.45;;;;;;;-2.83;82.30;97285.88;1742683;81;27451;-66
2021/12/29 02:18:34;;;;;;;83.60;33.48;;;;;;;-2.82;82.31;97288.05;1742710;82;25599;-67
2021/12/29 02:21:00;;;;;;;89.60;35.25;;;;;;;-2.80;82.29;97296.09;1742765;81;25718;-66
2021/12/29 02:23:34;;;;;;;86.00;34.13;;;;;;;-2.79;82.26;97295.02;1742555;82;25633;-67
2021/12/29 02:25:57;;;;;;;75.35;29.07;;;;;;;-2.77;82.31;97293.41;1742165;81;25564;-65
2021/12/29 02:28:31;;;;;;;70.67;30.00;;;;;;;-2.78;82.13;97292.63;1743042;82;27428;-65
2021/12/29 02:31:03;;;;;;;73.87;31.27;;;;;;;-2.82;82.11;97291.51;1742977;81;25831;-65
2021/12/29 02:33:30;;;;;;;73.22;30.90;;;;;;;-2.83;82.20;97295.27;1741129;81;25638;-64
2021/12/29 02:35:58;;;;;;;78.10;33.67;;;;;;;-2.84;82.23;97303.57;1743057;81;25575;-65
2021/12/29 02:38:29;;;;;;;77.08;31.85;;;;;;;-2.82;82.24;97302.79;1743129;81;25452;-66
2021/12/29 02:41:01;;;;;;;78.15;32.40;;;;;;;-2.80;82.27;97307.34;1743333;82;28077;-64
2021/12/29 02:43:27;;;;;;;64.95;27.15;;;;;;;-2.82;82.18;97296.88;1743011;82;25434;-66
2021/12/29 02:46:01;;;;;;;85.70;31.10;;;;;;;-2.81;82.37;97293.14;1742950;81;25558;-66
2021/12/29 02:48:36;;;;;;;87.88;33.00;;;;;;;-2.80;82.33;97292.07;1742821;81;25751;-60
2021/12/29 02:51:04;;;;;;;79.97;31.37;;;;;;;-2.78;82.46;97289.95;1742443;81;25579;-65
2021/12/29 02:53:30;;;;;;;78.70;34.27;;;;;;;-2.74;82.47;97298.26;1742737;81;27089;-65
2021/12/29 02:55:57;;;;;;;82.62;32.53;;;;;;;-2.73;82.49;97291.84;1742804;82;25373;-66
2021/12/29 02:58:25;;;;;;;69.95;29.63;;;;;;;-2.70;82.53;97292.67;1742633;82;25661;-65
2021/12/29 03:00:54;;;;;;;78.35;32.80;;;;;;;-2.67;82.71;97292.67;1742698;81;27545;-65
2021/12/29 03:03:24;;;;;;;81.40;33.53;;;;;;;-2.67;82.82;97296.69;1743073;82;25614;-65
2021/12/29 03:05:51;;;;;;;78.57;34.50;;;;;;;-2.61;82.79;97294.31;1742837;82;27575;-65
2021/12/29 03:08:19;;;;;;;88.97;33.73;;;;;;;-2.54;82.87;97298.08;1747147;81;26216;-66
2021/12/29 03:10:47;;;;;;;82.47;34.73;;;;;;;-2.50;82.95;97293.83;1750599;82;25645;-65
2021/12/29 03:13:14;;;;;;;73.60;29.67;;;;;;;-2.47;82.98;97291.96;1750693;81;26404;-65
2021/12/29 03:15:40;;;;;;;74.60;31.00;;;;;;;-2.43;83.29;97290.36;1750644;82;25393;-64
2021/12/29 03:18:07;;;;;;;53.48;21.45;;;;;;;-2.43;83.44;97290.36;1750884;81;27272;-65
2021/12/29 03:20:34;;;;;;;73.17;28.65;;;;;;;-2.43;83.59;97293.05;1750574;82;25594;-65
2021/12/29 03:23:01;;;;;;;74.25;30.10;;;;;;;-2.43;83.70;97290.88;1750612;82;25648;-65
2021/12/29 03:25:27;;;;;;;55.78;21.55;;;;;;;-2.42;83.72;97288.49;1750633;82;27500;-65
2021/12/29 03:28:00;;;;;;;89.70;34.23;;;;;;;-2.41;83.86;97289.58;1750723;82;25697;-66
2021/12/29 03:30:28;;;;;;;83.55;34.25;;;;;;;-2.40;83.83;97287.68;1750607;81;25984;-66
2021/12/29 03:33:05;;;;;;;75.17;32.03;;;;;;;-2.36;83.87;97283.95;1750873;81;25764;-67
2021/12/29 03:35:23;;;;;;;82.15;34.67;;;;;;;-2.31;83.93;97285.28;1745729;81;25677;-66
2021/12/29 03:37:49;;;;;;;82.33;33.00;;;;;;;-2.24;83.93;97283.70;1750518;82;25604;-66
2021/12/29 03:40:16;;;;;;;82.95;34.35;;;;;;;-2.20;83.97;97290.97;1750770;81;25619;-66
2021/12/29 03:42:42;;;;;;;81.10;34.43;;;;;;;-2.10;84.09;97286.70;1750688;82;27368;-66
2021/12/29 03:45:10;;;;;;;79.25;35.25;;;;;;;-2.04;84.04;97283.75;1750886;81;25475;-66
2021/12/29 03:47:36;;;;;;;78.22;33.53;;;;;;;-1.97;84.00;97289.41;1750531;82;25716;-65
2021/12/29 03:50:04;;;;;;;87.90;38.92;;;;;;;-1.93;83.92;97292.64;1750724;82;25425;-65
2021/12/29 03:52:30;;;;;;;84.03;37.15;;;;;;;-1.92;83.84;97290.24;1750917;82;25449;-65
2021/12/29 03:54:57;;;;;;;98.85;39.65;;;;;;;-1.87;83.89;97295.34;1750573;82;27359;-65
2021/12/29 03:57:23;;;;;;;100.30;38.38;;;;;;;-1.86;83.87;97299.63;1750929;81;25420;-65
2021/12/29 03:59:49;;;;;;;99.92;38.45;;;;;;;-1.86;83.91;97301.79;1750727;81;25710;-64
2021/12/29 04:02:16;;;;;;;102.60;40.05;;;;;;;-1.85;83.74;97305.27;1750597;82;25625;-65
2021/12/29 04:04:42;;;;;;;104.23;41.80;;;;;;;-1.88;83.58;97307.95;1750604;82;25627;-64
2021/12/29 04:07:09;;;;;;;96.05;39.15;;;;;;;-1.87;83.54;97310.11;1750780;82;27629;-65
2021/12/29 04:09:35;;;;;;;104.60;42.43;;;;;;;-1.89;83.38;97310.37;1750614;81;25690;-65
2021/12/29 04:12:01;;;;;;;93.97;39.55;;;;;;;-1.86;83.39;97317.91;1750632;82;25714;-63
2021/12/29 04:14:28;;;;;;;104.23;39.25;;;;;;;-1.82;83.38;97320.84;1750823;81;25468;-66
2021/12/29 04:16:57;;;;;;;94.05;38.80;;;;;;;-1.78;83.49;97324.64;1750587;82;25621;-65
2021/12/29 04:19:40;;;;;;;87.97;38.85;;;;;;;-1.70;83.58;97322.75;1750584;82;27586;-66
2021/12/29 04:21:58;;;;;;;85.70;37.00;;;;;;;-1.65;83.58;97325.45;1749318;81;25726;-66
2021/12/29 04:24:25;;;;;;;92.97;37.95;;;;;;;-1.64;83.29;97324.38;1750805;82;25392;-65
2021/12/29 04:26:51;;;;;;;82.85;34.27;;;;;;;-1.62;83.44;97324.66;1750661;82;25591;-66
2021/12/29 04:29:17;;;;;;;87.90;36.30;;;;;;;-1.61;83.42;97327.61;1750683;81;25712;-66
2021/12/29 04:31:44;;;;;;;85.92;36.50;;;;;;;-1.61;83.51;97326.27;1750742;82;27462;-66
2021/12/29 04:34:11;;;;;;;84.90;34.73;;;;;;;-1.57;83.57;97326.00;1750615;81;25597;-65
2021/12/29 04:36:37;;;;;;;82.22;34.30;;;;;;;-1.57;83.58;97322.78;1751117;82;25400;-66
2021/12/29 04:39:06;;;;;;;83.65;35.48;;;;;;;-1.55;83.57;97325.20;1750680;82;25555;-65
2021/12/29 04:41:33;;;;;;;73.30;31.45;;;;;;;-1.55;83.64;97318.48;1751128;81;25401;-66
2021/12/29 04:43:59;;;;;;;80.97;35.65;;;;;;;-1.55;83.74;97321.96;1750955;82;27413;-66
2021/12/29 04:46:36;;;;;;;88.95;35.23;;;;;;;-1.53;83.85;97327.06;1750569;81;25602;-66
2021/12/29 04:49:01;;;;;;;88.52;36.70;;;;;;;-1.50;83.99;97323.06;1749943;81;25558;-66
2021/12/29 04:51:32;;;;;;;82.92;34.35;;;;;;;-1.45;84.08;97325.20;1748700;81;25571;-65
2021/12/29 04:53:52;;;;;;;65.55;29.12;;;;;;;-1.41;84.20;97328.95;1749884;81;25642;-66
2021/12/29 04:59:04;;;;;;;73.37;32.17;;;;;;;-1.37;84.32;97320.36;1743905;82;25719;-66
2021/12/29 05:01:32;;;;;;;68.02;28.62;;;;;;;-1.32;84.41;97320.38;1744003;82;25664;-66
2021/12/29 05:03:59;;;;;;;75.40;33.05;;;;;;;-1.29;84.56;97317.94;1744079;81;25696;-66
2021/12/29 05:09:10;;;;;;;80.65;34.18;;;;;;;-1.17;84.67;97319.56;1743504;82;25690;-66
2021/12/29 05:11:36;;;;;;;64.87;29.40;;;;;;;-1.10;84.62;97321.42;1743508;81;25705;-67
2021/12/29 05:14:03;;;;;;;69.82;30.30;;;;;;;-1.04;84.67;97334.32;1743631;82;25451;-66
2021/12/29 05:16:29;;;;;;;72.82;30.15;;;;;;;-1.02;84.75;97333.52;1743742;82;25597;-66
2021/12/29 05:18:57;;;;;;;72.42;30.23;;;;;;;-1.03;84.99;97335.40;1743471;82;25597;-65
2021/12/29 05:21:25;;;;;;;75.57;32.48;;;;;;;-0.97;84.98;97336.75;1743591;82;27495;-66
2021/12/29 05:23:54;;;;;;;70.78;31.07;;;;;;;-0.94;85.06;97335.68;1743511;82;25650;-66
2021/12/29 05:26:20;;;;;;;77.05;33.20;;;;;;;-0.90;85.05;97340.77;1743853;82;25495;-66
2021/12/29 05:28:46;;;;;;;85.20;36.05;;;;;;;-0.83;84.96;97341.86;1743624;82;25621;-66
2021/12/29 05:31:13;;;;;;;82.70;34.35;;;;;;;-0.74;84.86;97341.28;1743858;82;25638;-66
2021/12/29 05:33:41;;;;;;;77.97;34.27;;;;;;;-0.71;84.78;97343.44;1743510;81;27478;-63
2021/12/29 05:36:07;;;;;;;79.75;35.88;;;;;;;-0.67;84.81;97351.22;1743726;82;25470;-66
2021/12/29 05:38:33;;;;;;;86.92;37.95;;;;;;;-0.63;84.73;97352.31;1743397;81;25471;-65
2021/12/29 05:41:00;;;;;;;83.90;36.63;;;;;;;-0.63;84.44;97357.69;1743481;81;25689;-66
2021/12/29 05:43:28;;;;;;;89.58;38.05;;;;;;;-0.65;84.25;97353.92;1743497;82;25602;-67
2021/12/29 05:45:54;;;;;;;81.42;35.98;;;;;;;-0.64;84.25;97354.18;1743450;82;27475;-66
2021/12/29 05:48:21;;;;;;;88.90;35.70;;;;;;;-0.66;84.24;97357.67;1743370;82;27131;-66
2021/12/29 05:50:47;;;;;;;84.67;36.13;;;;;;;-0.67;84.32;97353.38;1743396;82;25672;-67
2021/12/29 05:53:14;;;;;;;78.57;34.20;;;;;;;-0.64;84.41;97357.41;1743720;81;25610;-66
2021/12/29 05:55:41;;;;;;;103.70;41.58;;;;;;;-0.65;84.28;97356.61;1743543;82;25416;-66
2021/12/29 05:58:10;;;;;;;98.30;39.25;;;;;;;-0.61;84.25;97358.77;1743434;81;28779;-65
2021/12/29 06:00:39;;;;;;;83.05;35.68;;;;;;;-0.55;84.33;97368.44;1742967;82;25705;-66
2021/12/29 06:03:06;;;;;;;89.17;37.50;;;;;;;-0.52;84.19;97365.98;1743684;82;25648;-66
2021/12/29 06:05:33;;;;;;;92.45;37.48;;;;;;;-0.47;84.26;97367.86;1743523;82;25660;-67
2021/12/29 06:07:59;;;;;;;151.53;44.50;;;;;;;-0.53;84.02;97373.80;1743879;82;25450;-67
2021/12/29 06:10:25;;;;;;;98.52;39.85;;;;;;;-0.53;84.39;97372.99;1743488;82;27585;-65
2021/12/29 06:12:52;;;;;;;109.48;43.80;;;;;;;-0.50;84.39;97381.87;1743446;82;27177;-65
2021/12/29 06:15:18;;;;;;;115.57;44.80;;;;;;;-0.52;83.98;97378.10;1743539;82;25633;-66
2021/12/29 06:17:44;;;;;;;108.63;44.03;;;;;;;-0.56;83.73;97391.02;1743549;82;26188;-66
2021/12/29 06:20:12;;;;;;;121.90;44.48;;;;;;;-0.58;83.49;97382.44;1743397;82;25593;-65
2021/12/29 06:22:40;;;;;;;120.72;44.85;;;;;;;-0.66;83.32;97391.31;1743694;82;28097;-66
2021/12/29 06:25:11;;;;;;;111.65;44.38;;;;;;;-0.69;83.48;97399.13;1743588;82;25582;-66
2021/12/29 06:27:38;;;;;;;114.72;44.03;;;;;;;-0.72;83.67;97389.70;1743933;81;25762;-66
2021/12/29 06:30:09;;;;;;;104.40;43.33;;;;;;;-0.73;83.64;97401.55;1743529;82;27570;-66
2021/12/29 06:32:35;;;;;;;;;;;;;;;-0.74;83.84;97399.12;1746515;81;25432;-66
2021/12/29 06:35:02;;;;;;;100.38;39.70;;;;;;;-0.75;83.93;97396.97;1743507;82;27524;-67
2021/12/29 06:37:28;;;;;;;110.05;41.85;;;;;;;-0.77;84.01;97405.86;1743683;82;25589;-65
2021/12/29 06:39:54;;;;;;;86.35;33.70;;;;;;;-0.75;84.09;97409.07;1743465;82;25621;-66
2021/12/29 06:42:20;;;;;;;103.53;33.40;;;;;;;-0.72;84.28;97413.12;1743464;82;27472;-65
2021/12/29 06:44:48;;;;;;;49.65;16.85;;;;;;;-0.63;85.14;97418.23;1743443;82;25624;-65
2021/12/29 06:47:15;;;;;;;53.65;13.48;;;;;;;-0.47;86.78;97410.11;1743690;82;27586;-64
2021/12/29 06:49:42;;;;;;;31.97;13.03;;;;;;;-0.28;87.41;97415.21;1743406;82;25487;-64
2021/12/29 06:52:09;;;;;;;26.70;10.32;;;;;;;-0.12;86.64;97419.19;1743449;82;25605;-66
2021/12/29 06:54:36;;;;;;;16.35;7.03;;;;;;;0.02;86.75;97425.33;1743393;82;25423;-65
2021/12/29 06:57:03;;;;;;;11.20;4.83;;;;;;;0.15;87.26;97423.41;1743442;82;25467;-66
2021/12/29 06:59:30;;;;;;;12.93;4.75;;;;;;;0.27;87.51;97431.70;1743354;82;27442;-66
2021/12/29 07:01:57;;;;;;;22.60;8.20;;;;;;;0.31;87.38;97434.92;1743310;82;25619;-67
2021/12/29 07:04:24;;;;;;;39.63;11.88;;;;;;;0.40;86.99;97435.14;1743555;82;25748;-66
2021/12/29 07:06:51;;;;;;;45.60;14.73;;;;;;;0.48;86.83;97424.33;1743327;82;25656;-66
2021/12/29 07:09:19;;;;;;;29.85;10.68;;;;;;;0.56;86.67;97430.49;1743938;81;25641;-66
2021/12/29 07:11:46;;;;;;;49.13;13.68;;;;;;;0.65;86.18;97436.62;1743711;82;27385;-65
2021/12/29 07:14:12;;;;;;;48.35;14.73;;;;;;;0.73;86.34;97440.09;1743306;82;27095;-65
2021/12/29 07:16:44;;;;;;;21.62;7.67;;;;;;;0.78;86.13;97437.91;1743561;81;25434;-65
2021/12/29 07:19:09;;;;;;;31.33;11.43;;;;;;;0.81;86.12;97439.48;1743308;82;25688;-65
2021/12/29 07:21:36;;;;;;;25.80;11.08;;;;;;;0.83;86.06;97443.26;1743831;82;25630;-64
2021/12/29 07:24:02;;;;;;;40.67;15.63;;;;;;;0.87;85.90;97438.94;1743697;82;27412;-64
2021/12/29 07:26:29;;;;;;;37.95;15.60;;;;;;;0.90;85.61;97445.13;1743431;81;25617;-64
2021/12/29 07:28:56;;;;;;;26.12;11.63;;;;;;;0.97;85.57;97451.53;1743716;82;25585;-63
2021/12/29 07:31:23;;;;;;;21.07;9.65;;;;;;;1.04;85.58;97457.44;1743594;82;25703;-62
2021/12/29 07:33:50;;;;;;;22.48;10.75;;;;;;;1.06;85.57;97455.81;1743416;82;25666;-62
2021/12/29 07:36:17;;;;;;;12.45;6.55;;;;;;;1.09;85.61;97453.88;1743442;82;27431;-62
2021/12/29 07:38:44;;;;;;;17.00;6.92;;;;;;;1.11;85.45;97450.36;1743620;82;25680;-62
2021/12/29 07:41:11;;;;;;;12.95;7.12;;;;;;;1.12;85.52;97456.83;1736543;80;25602;-62
2021/12/29 07:43:38;;;;;;;23.98;10.75;;;;;;;1.17;85.40;97441.14;1737147;82;25743;-62
2021/12/29 07:46:06;;;;;;;12.90;6.85;;;;;;;1.25;85.26;97458.62;1741947;82;25434;-61
2021/12/29 07:48:35;;;;;;;24.87;10.25;;;;;;;1.30;84.98;97458.59;1742393;82;27451;-62
2021/12/29 07:51:04;;;;;;;13.32;6.30;;;;;;;1.38;84.92;97468.77;1742033;82;25735;-62
2021/12/29 07:53:34;;;;;;;14.03;6.53;;;;;;;1.46;84.78;97467.89;1742110;82;25736;-62
2021/12/29 07:56:01;;;;;;;17.70;8.03;;;;;;;1.49;84.61;97465.45;1741951;82;25599;-62
2021/12/29 07:58:27;;;;;;;18.10;6.53;;;;;;;1.53;84.52;97472.98;1742108;82;25577;-62
2021/12/29 08:00:54;;;;;;;7.37;4.03;;;;;;;1.54;84.53;97472.70;1741994;82;27485;-62
2021/12/29 08:03:20;;;;;;;10.68;5.67;;;;;;;1.55;84.37;97481.61;1741855;82;25440;-61
2021/12/29 08:05:47;;;;;;;12.58;5.92;;;;;;;1.57;84.46;97482.12;1741908;82;25473;-62
2021/12/29 08:08:13;;;;;;;49.80;13.30;;;;;;;1.60;84.40;97487.77;1742159;82;25497;-62
2021/12/29 08:10:41;;;;;;;44.70;17.65;;;;;;;1.63;84.27;97484.50;1741983;82;25579;-61
2021/12/29 08:13:09;;;;;;;22.55;11.22;;;;;;;1.72;84.16;97487.92;1742230;82;27663;-61
2021/12/29 08:15:36;;;;;;;249.58;97.35;;;;;;;1.75;83.92;97492.22;1742305;82;25691;-62
2021/12/29 08:18:05;;;;;;;219.53;87.40;;;;;;;1.79;83.82;97491.11;1741972;82;25769;-61
2021/12/29 08:20:35;;;;;;;283.00;106.45;;;;;;;1.83;83.76;97494.85;1742399;82;25679;-61
2021/12/29 08:23:03;;;;;;;24.37;11.40;;;;;;;1.85;83.69;97493.22;1742112;82;25617;-61
2021/12/29 08:25:29;;;;;;;54.33;29.35;;;;;;;1.86;83.58;97509.67;1741708;82;27427;-62
2021/12/29 08:27:56;;;;;;;49.83;19.23;;;;;;;1.84;83.72;97507.26;1741786;82;25882;-62
2021/12/29 08:30:22;;;;;;;74.00;26.35;;;;;;;1.83;83.69;97498.91;1741949;82;25633;-62
2021/12/29 08:32:49;;;;;;;37.28;15.00;;;;;;;1.83;83.67;97507.55;1741919;82;25500;-61
2021/12/29 08:35:16;;;;;;;49.80;21.40;;;;;;;1.85;83.67;97509.42;1741941;82;25450;-61
2021/12/29 08:37:43;;;;;;;34.08;14.90;;;;;;;1.89;83.64;97514.52;1742079;82;27510;-62
2021/12/29 08:40:11;;;;;;;25.23;12.10;;;;;;;1.93;83.48;97511.49;1741760;82;25676;-62
2021/12/29 08:42:39;;;;;;;12.93;6.78;;;;;;;1.96;83.40;97517.68;1742335;82;25479;-62
2021/12/29 08:45:10;;;;;;;11.78;6.40;;;;;;;1.99;83.17;97521.16;1741961;82;25672;-62
2021/12/29 08:47:38;;;;;;;7.15;3.95;;;;;;;2.00;83.22;97525.50;1742526;82;25677;-61
2021/12/29 08:50:08;;;;;;;32.25;12.85;;;;;;;2.00;83.10;97524.68;1741925;82;27496;-61
2021/12/29 08:52:35;;;;;;;43.58;15.05;;;;;;;1.97;83.06;97521.20;1742244;82;25978;-62
2021/12/29 08:55:05;;;;;;;15.90;5.58;;;;;;;1.96;83.14;97514.97;1742039;82;25405;-62
2021/12/29 08:57:32;;;;;;;13.10;5.55;;;;;;;1.94;83.04;97514.47;1741838;82;25444;-63
2021/12/29 08:59:58;;;;;;;33.73;11.40;;;;;;;1.94;83.00;97521.23;1747075;82;25423;-63
2021/12/29 09:02:26;;;;;;;35.08;8.85;;;;;;;1.97;83.02;97515.26;1747666;81;29546;-62
2021/12/29 09:04:53;;;;;;;35.33;10.53;;;;;;;2.02;82.98;97520.34;1747417;82;25425;-63
2021/12/29 09:07:20;;;;;;;13.45;5.05;;;;;;;2.06;82.84;97508.67;1747767;82;25480;-63
2021/12/29 09:09:46;;;;;;;17.23;7.70;;;;;;;2.04;82.75;97510.06;1747374;81;25456;-63
2021/12/29 09:12:13;;;;;;;11.73;4.35;;;;;;;2.05;82.82;97515.72;1747492;82;25633;-63
2021/12/29 09:14:40;;;;;;;27.80;9.20;;;;;;;2.03;82.84;97513.30;1747484;82;27432;-62
2021/12/29 09:17:07;;;;;;;26.82;9.60;;;;;;;2.04;82.83;97523.01;1747391;82;25616;-62
2021/12/29 09:19:39;;;;;;;30.12;13.20;;;;;;;2.04;83.03;97517.61;1747806;81;25495;-62
2021/12/29 09:22:03;;;;;;;29.18;11.90;;;;;;;2.09;82.92;97520.27;1746628;82;25714;-62
2021/12/29 09:24:30;;;;;;;29.98;10.88;;;;;;;2.17;82.80;97528.84;1747662;82;25483;-61
2021/12/29 09:26:56;;;;;;;42.25;14.93;;;;;;;2.22;82.78;97531.50;1747551;82;27590;-61
2021/12/29 09:29:23;;;;;;;40.33;16.27;;;;;;;2.30;82.73;97538.96;1747400;82;25651;-62
2021/12/29 09:31:50;;;;;;;40.08;15.32;;;;;;;2.40;82.60;97546.70;1747649;82;25479;-61
2021/12/29 09:34:17;;;;;;;43.87;15.85;;;;;;;2.46;82.48;97550.44;1747677;82;25648;-62
2021/12/29 09:36:44;;;;;;;33.90;11.85;;;;;;;2.47;82.17;97550.69;1747364;82;25425;-61
2021/12/29 09:39:10;;;;;;;38.92;18.25;;;;;;;2.49;82.12;97554.45;1747389;82;27454;-61
2021/12/29 09:41:37;;;;;;;29.92;12.35;;;;;;;2.50;82.08;97554.16;1747781;82;25702;-62
2021/12/29 09:44:09;;;;;;;24.12;9.30;;;;;;;2.48;82.03;97552.85;1747470;82;25728;-62
2021/12/29 09:46:33;;;;;;;26.27;12.78;;;;;;;2.46;82.02;97546.91;1746827;82;25612;-62
2021/12/29 09:49:01;;;;;;;85.05;39.18;;;;;;;2.45;81.89;97542.61;1747491;82;25680;-61
2021/12/29 09:51:27;;;;;;;37.93;17.52;;;;;;;2.47;82.10;97550.69;1747777;82;27961;-62
2021/12/29 09:53:54;;;;;;;32.50;14.78;;;;;;;2.53;82.06;97549.28;1747390;82;25677;-62
2021/12/29 09:56:21;;;;;;;26.60;13.20;;;;;;;2.55;81.67;97548.43;1747441;82;25489;-61
2021/12/29 09:58:47;;;;;;;28.40;13.22;;;;;;;2.60;81.73;97550.55;1747305;82;25760;-61
2021/12/29 10:01:13;;;;;;;29.23;15.15;;;;;;;2.62;81.52;97542.94;1747645;82;25599;-61
2021/12/29 10:03:42;;;;;;;33.80;13.53;;;;;;;2.65;81.81;97538.05;1747416;82;27419;-62
2021/12/29 10:06:10;;;;;;;26.42;10.98;;;;;;;2.67;81.67;97538.58;1747323;82;25612;-61
2021/12/29 10:08:41;;;;;;;33.28;14.28;;;;;;;2.69;81.64;97548.55;1747836;82;25590;-62
2021/12/29 10:11:11;;;;;;;;;;;;;;;2.74;81.79;97549.84;1749908;82;25652;-61
2021/12/29 10:13:41;;;;;;;40.45;16.20;;;;;;;2.73;81.68;97549.03;1745647;82;25668;-62
2021/12/29 10:16:25;;;;;;;45.13;17.20;;;;;;;2.82;82.03;97546.48;1748073;82;28247;-62
2021/12/29 10:19:07;;;;;;;36.88;17.75;;;;;;;2.82;82.03;97546.48;1747652;81;25665;-62
2021/12/29 10:21:36;;;;;;;51.98;20.90;;;;;;;2.96;81.79;97540.34;1747617;81;25712;-62
2021/12/29 10:24:04;;;;;;;49.53;20.60;;;;;;;3.06;81.29;97540.23;1747464;81;26250;-62
2021/12/29 10:26:35;;;;;;;36.30;17.15;;;;;;;3.18;80.94;97544.39;1747825;82;25598;-63
2021/12/29 10:29:09;;;;;;;23.87;11.90;;;;;;;3.31;80.90;97549.64;1747582;82;29547;-63
2021/12/29 10:31:40;;;;;;;32.48;15.03;;;;;;;3.39;80.68;97556.55;1747786;82;25723;-62
2021/12/29 10:34:11;;;;;;;16.67;8.58;;;;;;;3.45;80.24;97555.91;1746404;82;25712;-63
2021/12/29 10:36:46;;;;;;;18.35;9.68;;;;;;;3.42;79.77;97556.50;1746655;82;25697;-63
2021/12/29 10:39:36;;;;;;;31.68;13.30;;;;;;;3.43;79.85;97558.67;1712126;83;25647;-62
2021/12/29 10:42:19;;;;;;;23.40;10.78;;;;;;;3.45;80.43;97557.27;1711759;83;27438;-63
2021/12/29 10:44:59;;;;;;;38.40;15.85;;;;;;;3.42;79.91;97563.27;1711683;83;25486;-63
2021/12/29 10:47:33;;;;;;;18.73;7.80;;;;;;;3.37;79.87;97555.24;1712048;83;25607;-63
2021/12/29 10:50:05;;;;;;;34.70;14.93;;;;;;;3.39;79.51;97549.78;1697031;84;25631;-62
2021/12/29 10:52:42;;;;;;;27.27;11.95;;;;;;;3.47;80.17;97551.02;1685896;85;25419;-63
2021/12/29 10:55:20;;;;;;;31.90;14.70;;;;;;;3.56;79.65;97557.11;1686732;85;28052;-63
2021/12/29 10:58:03;;;;;;;25.48;12.20;;;;;;;3.67;80.07;97557.76;1685619;85;25600;-63
2021/12/29 11:00:30;;;;;;;25.92;11.65;;;;;;;3.75;79.84;97556.53;1668715;85;25458;-63
2021/12/29 11:03:16;;;;;;;19.65;9.28;;;;;;;3.83;79.39;97561.83;1688108;85;25724;-63
2021/12/29 11:05:53;;;;;;;31.45;13.98;;;;;;;3.92;79.22;97562.52;1679131;85;25494;-63
2021/12/29 11:08:18;;;;;;;18.92;10.30;;;;;;;4.01;79.53;97559.38;1670537;85;26796;-64
2021/12/29 11:10:47;;;;;;;26.90;12.37;;;;;;;4.17;79.06;97557.77;1670631;85;25653;-64
2021/12/29 11:13:26;;;;;;;27.42;12.73;;;;;;;4.30;79.16;97553.45;1670511;85;25625;-63
2021/12/29 11:15:55;;;;;;;31.68;15.32;;;;;;;4.48;78.32;97561.25;1670655;85;26145;-64
2021/12/29 11:18:22;;;;;;;29.60;14.85;;;;;;;4.69;78.19;97558.16;1670543;85;25595;-64
2021/12/29 11:20:58;;;;;;;29.55;14.05;;;;;;;4.92;78.33;97561.73;1670383;85;27448;-63
2021/12/29 11:23:24;;;;;;;27.17;12.75;;;;;;;5.08;76.90;97558.16;1670780;85;25654;-64
2021/12/29 11:25:52;;;;;;;29.70;14.85;;;;;;;5.24;77.45;97553.76;1670393;85;25440;-64
2021/12/29 11:28:27;;;;;;;35.92;16.42;;;;;;;5.29;76.36;97552.27;1670338;85;25794;-64
2021/12/29 11:30:57;;;;;;;24.45;12.40;;;;;;;5.34;76.82;97560.31;1670438;85;25448;-64